createdAt,value
2022-07-26T00:00:10.101Z,74.17
2022-07-26T00:02:36.828Z,74.26
2022-07-26T00:05:03.714Z,74.03
2022-07-26T00:07:36.455Z,73.88
2022-07-26T00:10:05.426Z,73.64
2022-07-26T00:12:32.828Z,73.83
2022-07-26T00:14:59.705Z,73.83
2022-07-26T00:17:26.272Z,73.64
2022-07-26T00:19:53.029Z,73.60
2022-07-26T00:22:34.644Z,73.68
2022-07-26T00:25:06.441Z,73.94
2022-07-26T00:27:37.419Z,73.61
2022-07-26T00:30:09.084Z,74.43
2022-07-26T00:32:37.064Z,73.76
2022-07-26T00:35:04.416Z,74.07
2022-07-26T00:37:30.975Z,74.58
2022-07-26T00:39:57.566Z,74.43
2022-07-26T00:42:24.108Z,75.13
2022-07-26T00:44:51.010Z,75.02
2022-07-26T00:47:17.589Z,74.82
2022-07-26T00:49:44.492Z,75.27
2022-07-26T00:52:12.220Z,75.41
2022-07-26T00:54:40.701Z,75.45
2022-07-26T00:57:07.329Z,76.08
2022-07-26T00:59:34.156Z,76.29
2022-07-26T01:02:01.685Z,76.77
2022-07-26T01:04:28.797Z,76.66
2022-07-26T01:06:55.742Z,77.49
2022-07-26T01:09:23.103Z,79.22
2022-07-26T01:11:50.040Z,80.14
2022-07-26T01:14:20.421Z,80.32
2022-07-26T01:16:47.461Z,81.71
2022-07-26T01:19:14.594Z,82.33
2022-07-26T01:21:42.217Z,82.49
2022-07-26T01:24:09.848Z,82.78
2022-07-26T01:26:37.887Z,82.63
2022-07-26T01:29:05.208Z,83.20
2022-07-26T01:31:32.114Z,82.67
2022-07-26T01:33:58.755Z,82.62
2022-07-26T01:36:25.509Z,81.91
2022-07-26T01:38:52.282Z,81.27
2022-07-26T01:41:21.404Z,81.21
2022-07-26T01:44:05.164Z,81.49
2022-07-26T01:46:31.981Z,81.13
2022-07-26T01:48:58.759Z,80.71
2022-07-26T01:51:25.368Z,80.82
2022-07-26T01:53:51.948Z,80.65
2022-07-26T01:56:18.581Z,80.63
2022-07-26T01:58:45.294Z,80.49
2022-07-26T02:01:12.838Z,81.31
2022-07-26T02:03:39.580Z,81.24
2022-07-26T02:06:06.316Z,81.37
2022-07-26T02:08:33.541Z,81.17
2022-07-26T02:11:00.543Z,81.29
2022-07-26T02:13:39.387Z,81.27
2022-07-26T02:16:09.474Z,81.02
2022-07-26T02:18:40.567Z,80.96
2022-07-26T02:21:07.886Z,80.72
2022-07-26T02:23:34.974Z,79.99
2022-07-26T02:26:02.074Z,79.75
2022-07-26T02:28:28.880Z,80.29
2022-07-26T02:30:55.544Z,80.08
2022-07-26T02:33:38.519Z,80.17
2022-07-26T02:36:05.476Z,80.21
2022-07-26T02:38:32.217Z,80.31
2022-07-26T02:40:58.796Z,80.99
2022-07-26T02:43:27.082Z,81.82
2022-07-26T02:46:01.080Z,81.74
2022-07-26T02:48:29.369Z,81.21
2022-07-26T02:50:56.125Z,81.45
2022-07-26T02:53:22.744Z,81.43
2022-07-26T02:55:49.204Z,81.99
2022-07-26T02:58:15.756Z,82.35
2022-07-26T03:00:42.435Z,82.95
2022-07-26T03:03:09.170Z,84.37
2022-07-26T03:05:35.782Z,84.09
2022-07-26T03:08:02.358Z,84.04
2022-07-26T03:10:29.121Z,83.88
2022-07-26T03:12:56.839Z,84.07
2022-07-26T03:15:23.480Z,83.51
2022-07-26T03:17:50.238Z,83.92
2022-07-26T03:20:17.351Z,85.02
2022-07-26T03:22:43.986Z,84.83
2022-07-26T03:25:10.703Z,85.19
2022-07-26T03:27:37.457Z,85.69
2022-07-26T03:30:05.630Z,85.68
2022-07-26T03:32:32.392Z,85.67
2022-07-26T03:34:59.018Z,86.35
2022-07-26T03:37:25.734Z,86.95
2022-07-26T03:40:12.922Z,87.15
2022-07-26T03:42:39.481Z,86.56
2022-07-26T03:45:06.701Z,87.71
2022-07-26T03:47:33.464Z,87.96
2022-07-26T03:50:00.125Z,86.95
2022-07-26T03:52:26.744Z,85.66
2022-07-26T03:54:53.423Z,85.23
2022-07-26T03:57:19.956Z,84.73
2022-07-26T03:59:46.678Z,84.10
2022-07-26T04:02:13.478Z,83.41
2022-07-26T04:04:40.285Z,83.87
2022-07-26T04:07:07.459Z,83.36
2022-07-26T04:09:35.981Z,82.71
2022-07-26T04:12:02.651Z,82.88
2022-07-26T04:14:29.361Z,82.96
2022-07-26T04:16:56.136Z,82.44
2022-07-26T04:19:22.935Z,81.58
2022-07-26T04:21:49.703Z,82.29
2022-07-26T04:24:16.370Z,81.65
2022-07-26T04:26:43.077Z,81.62
2022-07-26T04:29:09.780Z,81.29
2022-07-26T04:31:38.506Z,81.64
2022-07-26T04:34:05.576Z,81.82
2022-07-26T04:36:32.587Z,81.97
2022-07-26T04:38:59.305Z,82.60
2022-07-26T04:41:26.051Z,81.99
2022-07-26T04:43:52.725Z,81.71
2022-07-26T04:46:19.513Z,81.33
2022-07-26T04:48:46.198Z,80.95
2022-07-26T04:51:12.841Z,80.88
2022-07-26T04:53:39.527Z,80.16
2022-07-26T04:56:06.441Z,80.31
2022-07-26T04:58:33.332Z,80.62
2022-07-26T05:01:10.150Z,79.31
2022-07-26T05:03:37.242Z,79.48
2022-07-26T05:06:04.331Z,79.53
2022-07-26T05:08:31.004Z,79.80
2022-07-26T05:10:57.584Z,79.69
2022-07-26T05:13:29.852Z,79.24
2022-07-26T05:15:58.078Z,78.34
2022-07-26T05:18:25.656Z,77.10
2022-07-26T05:20:52.678Z,76.47
2022-07-26T05:23:20.742Z,75.74
2022-07-26T05:25:48.048Z,76.37
2022-07-26T05:28:14.861Z,75.07
2022-07-26T05:30:41.621Z,75.56
2022-07-26T05:33:08.589Z,75.57
2022-07-26T05:35:35.282Z,75.39
2022-07-26T05:38:02.048Z,75.02
2022-07-26T05:40:28.716Z,74.65
2022-07-26T05:42:55.485Z,73.80
2022-07-26T05:45:22.171Z,74.04
2022-07-26T05:47:52.986Z,72.58
2022-07-26T05:50:20.174Z,72.32
2022-07-26T05:52:46.824Z,71.33
2022-07-26T05:55:14.113Z,69.89
2022-07-26T05:57:42.154Z,69.37
2022-07-26T06:00:12.063Z,70.15
2022-07-26T06:02:38.946Z,69.67
2022-07-26T06:05:05.919Z,70.58
2022-07-26T06:07:32.823Z,71.05
2022-07-26T06:10:00.147Z,69.90
2022-07-26T06:12:26.822Z,68.88
2022-07-26T06:14:53.561Z,67.77
2022-07-26T06:17:20.385Z,67.62
2022-07-26T06:19:47.866Z,66.53
2022-07-26T06:22:15.371Z,65.49
2022-07-26T06:24:42.166Z,64.15
2022-07-26T06:27:08.841Z,63.33
2022-07-26T06:29:35.595Z,63.56
2022-07-26T06:32:02.508Z,63.24
2022-07-26T06:34:29.381Z,63.24
2022-07-26T06:36:56.362Z,63.89
2022-07-26T06:39:23.209Z,63.25
2022-07-26T06:41:49.875Z,62.69
2022-07-26T06:44:16.730Z,63.05
2022-07-26T06:46:43.411Z,62.71
2022-07-26T06:49:10.073Z,62.20
2022-07-26T06:51:37.091Z,61.39
2022-07-26T06:54:05.758Z,61.55
2022-07-26T06:56:33.069Z,61.63
2022-07-26T06:58:59.848Z,61.66
2022-07-26T07:01:58.611Z,62.17
2022-07-26T07:04:13.119Z,60.27
2022-07-26T07:06:39.911Z,60.07
2022-07-26T07:09:07.780Z,59.75
2022-07-26T07:11:35.600Z,60.50
2022-07-26T07:14:03.466Z,59.72
2022-07-26T07:16:30.285Z,59.19
2022-07-26T07:18:57.193Z,57.98
2022-07-26T07:21:23.874Z,57.05
2022-07-26T07:23:50.607Z,56.20
2022-07-26T07:26:17.343Z,56.30
2022-07-26T07:28:44.142Z,57.72
2022-07-26T07:31:14.028Z,57.08
2022-07-26T07:33:52.499Z,55.40
2022-07-26T07:36:20.923Z,54.91
2022-07-26T07:38:48.856Z,54.15
2022-07-26T07:41:16.258Z,54.79
2022-07-26T07:43:42.995Z,55.51
2022-07-26T07:46:09.791Z,54.51
2022-07-26T07:48:41.116Z,54.70
2022-07-26T07:51:12.831Z,54.31
2022-07-26T07:53:39.662Z,54.24
2022-07-26T07:56:06.344Z,54.38
2022-07-26T07:58:34.352Z,54.11
2022-07-26T08:01:00.955Z,52.74
2022-07-26T08:03:38.656Z,54.28
2022-07-26T08:06:07.664Z,54.40
2022-07-26T08:08:34.936Z,55.56
2022-07-26T08:11:01.898Z,52.86
2022-07-26T08:13:30.530Z,53.52
2022-07-26T08:15:58.069Z,52.85
2022-07-26T08:18:27.460Z,54.27
2022-07-26T08:20:54.699Z,53.43
2022-07-26T08:23:22.366Z,51.71
2022-07-26T08:25:56.969Z,51.99
2022-07-26T08:28:48.710Z,50.69
2022-07-26T08:31:16.258Z,51.30
2022-07-26T08:33:46.355Z,49.63
2022-07-26T08:36:17.118Z,49.22
2022-07-26T08:38:44.716Z,50.01
2022-07-26T08:41:14.372Z,50.08
2022-07-26T08:43:45.232Z,49.74
2022-07-26T08:46:24.146Z,52.06
2022-07-26T08:48:51.815Z,51.52
2022-07-26T08:51:22.654Z,50.97
2022-07-26T08:53:51.128Z,51.93
2022-07-26T08:56:17.692Z,51.88
2022-07-26T08:58:45.565Z,52.08
2022-07-26T09:01:13.295Z,52.09
2022-07-26T09:03:41.528Z,51.67
2022-07-26T09:06:16.975Z,49.65
2022-07-26T09:08:45.924Z,49.84
2022-07-26T09:11:24.618Z,48.55
2022-07-26T09:13:53.773Z,47.73
2022-07-26T09:16:21.230Z,46.59
2022-07-26T09:18:48.000Z,46.65
2022-07-26T09:21:36.478Z,47.79
2022-07-26T09:24:03.184Z,49.32
2022-07-26T09:26:29.881Z,50.92
2022-07-26T09:29:12.603Z,51.25
2022-07-26T09:31:40.063Z,51.27
2022-07-26T09:34:07.596Z,50.79
2022-07-26T09:36:53.856Z,49.87
2022-07-26T09:39:33.357Z,49.72
2022-07-26T09:42:26.769Z,48.10
2022-07-26T09:44:56.590Z,46.06
2022-07-26T09:47:34.858Z,45.55
2022-07-26T09:50:20.765Z,44.54
2022-07-26T09:53:03.255Z,44.66
2022-07-26T09:55:40.957Z,44.66
2022-07-26T09:58:15.687Z,44.49
2022-07-26T10:00:43.614Z,43.25
2022-07-26T10:03:10.734Z,43.88
2022-07-26T10:05:37.877Z,44.01
2022-07-26T10:08:05.207Z,44.85
2022-07-26T10:10:35.157Z,45.45
2022-07-26T10:13:03.132Z,46.80
2022-07-26T10:15:35.890Z,44.88
2022-07-26T10:18:05.179Z,45.11
2022-07-26T10:21:01.042Z,45.04
2022-07-26T10:23:36.313Z,44.58
2022-07-26T10:26:04.947Z,44.16
2022-07-26T10:28:33.110Z,43.61
2022-07-26T10:31:20.282Z,43.39
2022-07-26T10:33:51.499Z,42.60
2022-07-26T10:36:33.568Z,43.35
2022-07-26T10:39:07.400Z,43.94
2022-07-26T10:41:44.811Z,46.61
2022-07-26T10:44:24.066Z,47.19
2022-07-26T10:47:09.239Z,47.17
2022-07-26T10:49:40.197Z,46.88
2022-07-26T10:52:18.761Z,46.38
2022-07-26T10:54:57.920Z,44.26
2022-07-26T10:57:39.123Z,44.20
2022-07-26T11:00:15.140Z,44.72
2022-07-26T11:02:44.123Z,43.52
2022-07-26T11:05:15.018Z,43.21
2022-07-26T11:08:06.367Z,42.61
2022-07-26T11:10:47.514Z,44.39
2022-07-26T11:13:16.771Z,44.42
2022-07-26T11:16:00.640Z,45.11
2022-07-26T11:18:37.146Z,46.53
2022-07-26T11:21:14.685Z,46.56
2022-07-26T11:23:45.891Z,48.18
2022-07-26T11:26:18.376Z,48.49
2022-07-26T11:28:54.300Z,49.53
2022-07-26T11:31:23.825Z,50.97
2022-07-26T11:34:23.993Z,51.85
2022-07-26T11:36:53.979Z,52.18
2022-07-26T11:39:23.032Z,53.08
2022-07-26T11:41:52.503Z,54.31
2022-07-26T11:44:21.430Z,54.57
2022-07-26T11:46:49.314Z,55.05
2022-07-26T11:52:20.779Z,55.04
2022-07-26T11:54:53.292Z,55.07
2022-07-26T11:57:20.052Z,54.21
2022-07-26T11:59:48.649Z,52.52
2022-07-26T12:02:15.956Z,53.74
2022-07-26T12:04:44.089Z,54.34
2022-07-26T12:07:13.548Z,54.29
2022-07-26T12:09:41.613Z,54.97
2022-07-26T12:12:10.646Z,54.89
2022-07-26T12:14:39.581Z,55.10
2022-07-26T12:17:18.557Z,54.25
2022-07-26T12:19:45.693Z,54.62
2022-07-26T12:22:21.150Z,54.10
2022-07-26T12:24:58.351Z,53.58
2022-07-26T12:27:29.458Z,54.80
2022-07-26T12:30:02.314Z,53.96
2022-07-26T12:32:37.848Z,54.47
2022-07-26T12:35:07.587Z,55.14
2022-07-26T12:37:53.921Z,54.56
2022-07-26T12:40:23.387Z,55.80
2022-07-26T12:42:49.979Z,56.12
2022-07-26T12:45:21.986Z,53.78
2022-07-26T12:47:51.133Z,54.99
2022-07-26T12:50:19.950Z,54.43
2022-07-26T12:52:47.178Z,55.59
2022-07-26T12:55:17.936Z,56.48
2022-07-26T12:57:47.635Z,55.93
2022-07-26T13:00:16.308Z,56.01
2022-07-26T13:02:44.544Z,56.86
2022-07-26T13:05:11.865Z,56.93
2022-07-26T13:07:39.174Z,56.26
2022-07-26T13:10:31.759Z,55.71
2022-07-26T13:12:54.563Z,55.63
2022-07-26T13:15:21.328Z,55.57
2022-07-26T13:17:48.074Z,55.14
2022-07-26T13:20:14.664Z,56.28
2022-07-26T13:22:44.054Z,56.49
2022-07-26T13:25:10.746Z,55.79
2022-07-26T13:27:41.430Z,54.40
2022-07-26T13:30:11.729Z,54.26
2022-07-26T13:32:38.308Z,54.51
2022-07-26T13:35:05.185Z,54.70
2022-07-26T13:37:31.998Z,53.76
2022-07-26T13:39:58.725Z,52.66
2022-07-26T13:42:25.389Z,50.44
2022-07-26T13:44:52.079Z,49.80
2022-07-26T13:47:18.765Z,50.49
2022-07-26T13:49:45.419Z,50.90
2022-07-26T13:52:15.689Z,50.73
2022-07-26T13:54:43.526Z,50.75
2022-07-26T13:57:10.218Z,51.15
2022-07-26T13:59:36.836Z,51.22
2022-07-26T14:02:05.246Z,51.85
2022-07-26T14:04:31.998Z,51.90
2022-07-26T14:06:58.612Z,52.31
2022-07-26T14:09:25.633Z,52.38
2022-07-26T14:11:52.188Z,52.46
2022-07-26T14:14:18.807Z,52.98
2022-07-26T14:16:49.551Z,52.75
2022-07-26T14:19:16.544Z,53.27
2022-07-26T14:21:48.846Z,52.62
2022-07-26T14:24:27.446Z,52.24
2022-07-26T14:26:58.618Z,52.80
2022-07-26T14:29:25.864Z,52.62
2022-07-26T14:31:52.633Z,52.54
2022-07-26T14:34:19.383Z,52.31
2022-07-26T14:36:46.047Z,51.90
2022-07-26T14:39:12.784Z,53.19
2022-07-26T14:41:39.486Z,53.10
2022-07-26T14:44:06.728Z,52.77
2022-07-26T14:46:33.620Z,52.69
2022-07-26T14:49:00.367Z,53.60
2022-07-26T14:51:27.156Z,53.23
2022-07-26T14:53:53.981Z,53.61
2022-07-26T14:56:20.769Z,54.11
2022-07-26T14:58:47.443Z,54.24
2022-07-26T15:01:14.223Z,53.42
2022-07-26T15:03:41.139Z,52.98
2022-07-26T15:06:08.012Z,53.28
2022-07-26T15:08:34.751Z,53.83
2022-07-26T15:11:01.489Z,53.42
2022-07-26T15:13:28.242Z,53.86
2022-07-26T15:15:54.779Z,54.67
2022-07-26T15:18:21.288Z,54.48
2022-07-26T15:20:50.439Z,54.59
2022-07-26T15:23:17.140Z,55.68
2022-07-26T15:25:43.922Z,55.49
2022-07-26T15:28:10.836Z,55.61
2022-07-26T15:30:37.441Z,55.67
2022-07-26T15:33:04.274Z,54.86
2022-07-26T15:35:31.249Z,55.10
2022-07-26T15:37:58.018Z,55.03
2022-07-26T15:40:24.951Z,57.04
2022-07-26T15:42:52.958Z,57.60
2022-07-26T15:45:20.662Z,58.45
2022-07-26T15:48:04.598Z,62.60
2022-07-26T15:50:35.057Z,64.19
2022-07-26T15:53:01.761Z,65.90
2022-07-26T15:55:28.445Z,66.72
2022-07-26T15:57:55.329Z,66.94
2022-07-26T16:00:21.914Z,66.45
2022-07-26T16:02:48.748Z,66.55
2022-07-26T16:05:16.014Z,66.77
2022-07-26T16:07:45.552Z,65.77
2022-07-26T16:10:13.926Z,65.56
2022-07-26T16:12:41.400Z,65.21
2022-07-26T16:15:10.431Z,65.61
2022-07-26T16:17:37.717Z,65.26
2022-07-26T16:20:05.271Z,65.73
2022-07-26T16:22:32.751Z,65.93
2022-07-26T16:24:59.410Z,66.67
2022-07-26T16:27:25.947Z,66.80
2022-07-26T16:29:52.722Z,66.64
2022-07-26T16:32:21.418Z,67.02
2022-07-26T16:34:48.527Z,67.32
2022-07-26T16:37:15.314Z,68.41
2022-07-26T16:39:41.978Z,68.21
2022-07-26T16:42:08.718Z,68.98
2022-07-26T16:44:36.466Z,68.90
2022-07-26T16:47:04.002Z,69.56
2022-07-26T16:49:30.909Z,69.16
2022-07-26T16:51:57.935Z,69.67
2022-07-26T16:54:25.027Z,69.72
2022-07-26T16:56:51.849Z,69.93
2022-07-26T16:59:18.867Z,69.58
2022-07-26T17:01:45.730Z,70.58
2022-07-26T17:04:12.645Z,70.96
2022-07-26T17:06:39.301Z,71.10
2022-07-26T17:09:06.021Z,70.55
2022-07-26T17:11:32.965Z,70.17
2022-07-26T17:13:59.680Z,71.18
2022-07-26T17:16:26.334Z,70.75
2022-07-26T17:18:54.787Z,70.03
2022-07-26T17:21:21.995Z,69.93
2022-07-26T17:23:49.104Z,70.06
2022-07-26T17:26:17.560Z,69.98
2022-07-26T17:28:44.372Z,70.22
2022-07-26T17:31:11.067Z,69.87
2022-07-26T17:33:37.857Z,69.34
2022-07-26T17:36:19.817Z,69.29
2022-07-26T17:38:46.631Z,69.33
2022-07-26T17:41:18.335Z,69.53
2022-07-26T17:43:45.958Z,68.92
2022-07-26T17:46:12.863Z,69.19
2022-07-26T17:48:40.114Z,69.77
2022-07-26T17:51:06.916Z,69.39
2022-07-26T17:53:34.458Z,69.19
2022-07-26T17:56:02.115Z,69.32
2022-07-26T17:58:28.884Z,69.56
2022-07-26T18:00:55.723Z,70.50
2022-07-26T18:03:23.389Z,69.84
2022-07-26T18:05:51.179Z,69.42
2022-07-26T18:08:18.192Z,69.50
2022-07-26T18:10:50.563Z,69.81
2022-07-26T18:13:17.976Z,70.25
2022-07-26T18:15:45.122Z,70.92
2022-07-26T18:18:12.326Z,71.59
2022-07-26T18:20:39.144Z,71.81
2022-07-26T18:23:06.088Z,72.46
2022-07-26T18:25:32.878Z,72.54
2022-07-26T18:28:04.703Z,72.17
2022-07-26T18:30:33.616Z,71.99
2022-07-26T18:33:00.239Z,72.52
2022-07-26T18:35:27.916Z,72.85
2022-07-26T18:37:54.808Z,73.29
2022-07-26T18:40:22.673Z,73.89
2022-07-26T18:42:49.950Z,74.10
2022-07-26T18:45:16.802Z,75.48
2022-07-26T18:47:43.830Z,75.10
2022-07-26T18:50:12.000Z,75.43
2022-07-26T18:52:42.301Z,75.17
2022-07-26T18:55:10.135Z,76.02
2022-07-26T18:57:37.471Z,76.18
2022-07-26T19:00:10.028Z,76.24
2022-07-26T19:02:36.683Z,76.85
2022-07-26T19:05:04.662Z,76.51
2022-07-26T19:07:32.001Z,77.64
2022-07-26T19:10:02.063Z,80.72
2022-07-26T19:12:28.803Z,85.24
2022-07-26T19:14:55.477Z,88.22
2022-07-26T19:17:22.681Z,90.04
2022-07-26T19:19:49.381Z,90.25
2022-07-26T19:22:16.099Z,89.60
2022-07-26T19:24:42.969Z,90.49
2022-07-26T19:27:09.772Z,91.81
2022-07-26T19:29:37.631Z,91.54
2022-07-26T19:32:05.059Z,93.39
2022-07-26T19:34:31.636Z,93.02
2022-07-26T19:36:58.614Z,95.24
2022-07-26T19:39:25.476Z,94.10
2022-07-26T19:41:52.733Z,94.36
2022-07-26T19:44:19.661Z,92.99
2022-07-26T19:46:47.590Z,93.54
2022-07-26T19:49:16.276Z,94.94
2022-07-26T19:51:43.677Z,97.31
2022-07-26T19:54:10.295Z,97.95
2022-07-26T19:56:36.866Z,98.74
2022-07-26T19:59:03.683Z,99.96
2022-07-26T20:01:30.473Z,100.00
2022-07-26T20:03:57.264Z,100.00
2022-07-26T20:06:24.027Z,100.00
2022-07-26T20:08:50.898Z,100.00
2022-07-26T20:11:22.775Z,100.00
2022-07-26T20:13:49.899Z,100.00
2022-07-26T20:16:17.051Z,100.00
2022-07-26T20:18:43.705Z,100.00
2022-07-26T20:21:10.375Z,100.00
2022-07-26T20:23:37.036Z,100.00
2022-07-26T20:26:03.759Z,100.00
2022-07-26T20:28:30.402Z,100.00
2022-07-26T20:30:57.126Z,100.00
2022-07-26T20:33:25.407Z,100.00
2022-07-26T20:35:55.074Z,100.00
2022-07-26T20:38:22.452Z,100.00
2022-07-26T20:40:49.686Z,100.00
2022-07-26T20:43:16.476Z,100.00
2022-07-26T20:45:43.463Z,100.00
2022-07-26T20:48:10.175Z,100.00
2022-07-26T20:50:36.747Z,100.00
2022-07-26T20:53:03.620Z,100.00
2022-07-26T20:55:30.169Z,100.00
2022-07-26T20:57:57.115Z,100.00
2022-07-26T21:00:25.011Z,100.00
2022-07-26T21:02:53.758Z,100.00
2022-07-26T21:05:20.870Z,100.00
2022-07-26T21:07:53.923Z,100.00
2022-07-26T21:10:26.998Z,100.00
2022-07-26T21:12:54.667Z,100.00
2022-07-26T21:15:21.300Z,100.00
2022-07-26T21:17:47.946Z,100.00
2022-07-26T21:20:14.472Z,100.00
2022-07-26T21:22:41.172Z,100.00
2022-07-26T21:25:08.245Z,100.00
2022-07-26T21:27:34.940Z,100.00
2022-07-26T21:30:02.182Z,100.00
2022-07-26T21:32:31.697Z,100.00
2022-07-26T21:34:58.909Z,100.00
2022-07-26T21:37:25.884Z,100.00
2022-07-26T21:39:52.605Z,100.00
2022-07-26T21:42:19.285Z,100.00
2022-07-26T21:44:45.978Z,100.00
2022-07-26T21:47:12.626Z,100.00
2022-07-26T21:49:39.182Z,100.00
2022-07-26T21:52:06.117Z,100.00
2022-07-26T21:54:32.888Z,100.00
2022-07-26T21:56:59.523Z,100.00
2022-07-26T21:59:26.267Z,100.00
2022-07-26T22:01:53.018Z,100.00
2022-07-26T22:04:19.714Z,100.00
2022-07-26T22:06:46.387Z,100.00
2022-07-26T22:09:13.371Z,100.00
2022-07-26T22:11:40.169Z,100.00
2022-07-26T22:14:08.521Z,100.00
2022-07-26T22:16:35.848Z,100.00
2022-07-26T22:19:02.660Z,100.00
2022-07-26T22:21:29.467Z,100.00
2022-07-26T22:23:56.151Z,100.00
2022-07-26T22:26:26.334Z,100.00
2022-07-26T22:28:53.117Z,100.00
2022-07-26T22:31:19.774Z,100.00
2022-07-26T22:33:46.508Z,100.00
2022-07-26T22:36:13.158Z,100.00
2022-07-26T22:38:39.919Z,100.00
2022-07-26T22:41:06.572Z,100.00
2022-07-26T22:43:33.180Z,100.00
2022-07-26T22:45:59.886Z,100.00
2022-07-26T22:48:26.478Z,100.00
2022-07-26T22:50:53.138Z,100.00
2022-07-26T22:53:19.747Z,100.00
2022-07-26T22:55:46.313Z,100.00
2022-07-26T22:58:12.926Z,100.00
2022-07-26T23:00:39.661Z,100.00
2022-07-26T23:03:14.637Z,100.00
2022-07-26T23:05:47.853Z,100.00
2022-07-26T23:08:46.389Z,100.00
2022-07-26T23:11:01.774Z,100.00
2022-07-26T23:13:28.455Z,100.00
2022-07-26T23:16:00.310Z,100.00
2022-07-26T23:18:28.208Z,100.00
2022-07-26T23:20:54.830Z,100.00
2022-07-26T23:23:21.506Z,100.00
2022-07-26T23:25:48.217Z,100.00
2022-07-26T23:28:24.737Z,100.00
2022-07-26T23:31:03.132Z,100.00
2022-07-26T23:33:50.922Z,100.00
2022-07-26T23:36:16.389Z,100.00
2022-07-26T23:38:42.990Z,100.00
2022-07-26T23:41:09.760Z,100.00
2022-07-26T23:43:36.479Z,100.00
2022-07-26T23:46:02.958Z,100.00
2022-07-26T23:48:30.487Z,100.00
2022-07-26T23:50:57.273Z,100.00
2022-07-26T23:53:26.764Z,100.00
2022-07-26T23:55:54.184Z,100.00
2022-07-26T23:58:21.075Z,100.00
